Time;durP1;ratioP1;P1;durP2;ratioP2;P2;SDS_P1;SDS_P2;PMS_P1;PMS_P2;Temp;Humidity;BMP_temperature;BMP_pressure;BME280_temperature;BME280_humidity;BME280_pressure;Samples;Min_cycle;Max_cycle;Signal;HPM_P1;HPM_P2
2023/09/18 00:00:39;;;;;;;10.75;9.80;;;18.00;86.20;;;;;;5114625;28;20194;-89
2023/09/18 00:03:04;;;;;;;11.73;10.63;;;17.90;86.10;;;;;;5114436;28;20254;-90
2023/09/18 00:05:31;;;;;;;21.20;19.80;;;17.90;86.20;;;;;;5113290;28;20182;-89
2023/09/18 00:07:56;;;;;;;23.05;21.38;;;17.90;86.30;;;;;;5113364;28;20170;-90
2023/09/18 00:10:22;;;;;;;12.88;11.88;;;18.00;86.60;;;;;;5113195;28;20170;-90
2023/09/18 00:12:47;;;;;;;13.38;11.57;;;18.00;86.70;;;;;;5113245;28;20261;-89
2023/09/18 00:15:13;;;;;;;12.52;11.45;;;18.00;86.60;;;;;;5113115;28;20678;-90
2023/09/18 00:17:39;;;;;;;14.98;11.75;;;18.00;86.70;;;;;;5113188;28;20178;-89
2023/09/18 00:20:06;;;;;;;12.32;11.30;;;18.00;86.80;;;;;;5114364;28;20255;-89
2023/09/18 00:22:32;;;;;;;12.02;11.02;;;18.00;86.80;;;;;;5112920;28;20288;-90
2023/09/18 00:24:58;;;;;;;12.00;10.98;;;18.00;86.80;;;;;;5114191;28;20732;-90
2023/09/18 00:27:23;;;;;;;11.93;11.05;;;18.00;87.00;;;;;;5114127;28;20284;-90
2023/09/18 00:29:49;;;;;;;11.80;10.75;;;17.90;87.10;;;;;;5114242;28;20166;-90
2023/09/18 00:32:14;;;;;;;12.98;11.60;;;17.90;87.10;;;;;;5112989;28;20178;-90
2023/09/18 00:34:40;;;;;;;11.63;10.60;;;17.90;87.20;;;;;;5112847;28;20194;-90
2023/09/18 00:37:05;;;;;;;11.57;10.65;;;17.90;87.30;;;;;;5112747;28;20219;-90
2023/09/18 00:39:31;;;;;;;11.60;10.63;;;17.90;87.30;;;;;;5114040;28;20173;-90
2023/09/18 00:41:56;;;;;;;12.02;10.82;;;17.80;87.50;;;;;;5114255;28;20202;-90
2023/09/18 00:44:23;;;;;;;11.63;10.73;;;17.90;87.60;;;;;;5112694;28;20224;-90
2023/09/18 00:46:49;;;;;;;12.98;10.23;;;17.90;87.50;;;;;;5113919;28;20633;-90
2023/09/18 00:49:16;;;;;;;12.00;11.00;;;17.80;87.50;;;;;;5112675;28;20547;-89
2023/09/18 00:51:43;;;;;;;11.65;10.60;;;17.80;87.60;;;;;;5112614;28;20226;-90
2023/09/18 00:54:09;;;;;;;11.38;10.45;;;17.80;87.60;;;;;;5112540;28;20198;-90
2023/09/18 00:56:35;;;;;;;11.93;10.57;;;17.80;87.60;;;;;;5113631;28;20190;-90
2023/09/18 00:59:03;;;;;;;11.45;10.55;;;17.80;87.60;;;;;;5112409;28;20197;-90
2023/09/18 01:01:29;;;;;;;11.15;10.20;;;17.70;87.50;;;;;;5112934;28;20550;-90
2023/09/18 01:03:55;;;;;;;11.02;10.05;;;17.70;87.60;;;;;;5116717;28;20193;-90
2023/09/18 01:06:21;;;;;;;11.00;9.98;;;17.60;87.60;;;;;;5119409;28;20169;-90
2023/09/18 01:08:50;;;;;;;12.15;10.73;;;17.60;87.60;;;;;;5119302;27;20176;-90
2023/09/18 01:11:37;;;;;;;12.25;11.35;;;17.60;87.60;;;;;;5119309;28;20243;-90
2023/09/18 01:14:31;;;;;;;12.38;11.48;;;17.60;87.40;;;;;;5119334;28;20220;-90
2023/09/18 01:16:58;;;;;;;12.35;11.15;;;17.60;87.40;;;;;;5120376;27;20158;-90
2023/09/18 01:19:40;;;;;;;11.82;10.93;;;17.50;87.40;;;;;;5119133;28;20177;-89
2023/09/18 01:22:07;;;;;;;12.93;11.85;;;17.50;87.40;;;;;;5119167;28;20197;-90
2023/09/18 01:24:34;;;;;;;11.77;10.93;;;17.50;87.50;;;;;;5119045;28;20220;-90
2023/09/18 01:27:00;;;;;;;12.02;11.05;;;17.40;87.60;;;;;;5120406;27;20166;-90
2023/09/18 01:29:25;;;;;;;12.65;11.60;;;17.30;87.70;;;;;;5120447;27;20195;-90
2023/09/18 01:31:52;;;;;;;13.02;11.75;;;17.30;87.90;;;;;;5120619;27;20197;-90
2023/09/18 01:34:21;;;;;;;12.77;11.80;;;17.30;88.00;;;;;;5119133;28;20250;-89
2023/09/18 01:36:47;;;;;;;12.40;11.40;;;17.20;88.20;;;;;;5120271;27;20174;-90
2023/09/18 01:39:13;;;;;;;12.77;11.60;;;17.20;88.30;;;;;;5119029;28;20174;-90
2023/09/18 01:41:40;;;;;;;12.60;11.60;;;17.20;88.40;;;;;;5118795;28;20676;-90
2023/09/18 01:44:06;;;;;;;12.43;10.95;;;17.10;88.40;;;;;;5118921;28;20273;-90
2023/09/18 01:46:35;;;;;;;12.55;11.55;;;17.10;88.50;;;;;;5120093;27;20646;-90
2023/09/18 01:49:02;;;;;;;12.88;11.88;;;17.00;88.60;;;;;;5118926;28;20181;-90
2023/09/18 01:51:28;;;;;;;12.32;11.23;;;16.90;88.70;;;;;;5118939;28;20173;-90
2023/09/18 01:53:55;;;;;;;12.65;11.65;;;16.90;88.80;;;;;;5118868;28;20551;-90
2023/09/18 01:56:20;;;;;;;12.98;11.77;;;16.80;89.00;;;;;;5118784;28;20565;-88
2023/09/18 01:58:46;;;;;;;12.48;11.45;;;16.80;89.20;;;;;;5119023;28;20228;-89
2023/09/18 02:01:11;;;;;;;13.55;12.38;;;16.80;89.20;;;;;;5118853;28;20255;-91
2023/09/18 02:03:41;;;;;;;12.88;11.77;;;16.80;89.30;;;;;;5118859;28;20186;-90
2023/09/18 02:06:08;;;;;;;12.30;11.27;;;16.80;89.30;;;;;;5120004;27;20613;-89
2023/09/18 02:08:34;;;;;;;13.35;12.10;;;16.80;89.40;;;;;;5118781;28;20550;-89
2023/09/18 02:10:59;;;;;;;12.98;10.98;;;16.80;89.40;;;;;;5118715;28;20174;-90
2023/09/18 02:13:25;;;;;;;12.88;11.80;;;16.80;89.40;;;;;;5118681;28;20267;-90
2023/09/18 02:15:51;;;;;;;13.93;12.13;;;16.80;89.60;;;;;;5115421;28;20212;-89
2023/09/18 02:18:16;;;;;;;19.23;17.42;;;16.90;89.70;;;;;;5115391;28;20260;-90
2023/09/18 02:20:42;;;;;;;19.45;17.83;;;16.90;89.80;;;;;;5115460;28;20230;-90
2023/09/18 02:23:07;;;;;;;19.25;17.55;;;17.00;89.80;;;;;;5116833;28;20244;-90
2023/09/18 02:25:33;;;;;;;13.10;11.77;;;17.00;89.80;;;;;;5115257;28;20540;-90
2023/09/18 02:27:58;;;;;;;13.30;11.75;;;17.00;89.70;;;;;;5115280;28;20190;-91
2023/09/18 02:30:24;;;;;;;18.25;16.75;;;17.10;89.60;;;;;;5115353;28;20568;-90
2023/09/18 02:32:50;;;;;;;18.80;17.25;;;17.10;89.60;;;;;;5116457;28;20245;-90
2023/09/18 02:35:15;;;;;;;12.38;11.27;;;17.10;89.50;;;;;;5115047;28;20561;-90
2023/09/18 02:37:41;;;;;;;14.30;11.38;;;17.10;89.40;;;;;;5116338;28;20653;-90
2023/09/18 02:40:07;;;;;;;12.63;11.45;;;17.20;89.40;;;;;;5115056;28;20211;-89
2023/09/18 02:42:33;;;;;;;12.55;11.55;;;17.20;89.30;;;;;;5114929;28;20197;-89
2023/09/18 02:44:58;;;;;;;11.70;10.73;;;17.20;89.00;;;;;;5114871;28;20197;-90
2023/09/18 02:47:24;;;;;;;12.57;11.50;;;17.20;88.90;;;;;;5116128;28;20589;-90
2023/09/18 02:49:49;;;;;;;13.57;11.38;;;17.30;88.80;;;;;;5115823;28;20215;-89
2023/09/18 02:52:15;;;;;;;11.88;10.88;;;17.30;88.70;;;;;;5114792;28;20174;-90
2023/09/18 02:54:41;;;;;;;12.60;11.48;;;17.30;88.60;;;;;;5114650;28;20201;-90
2023/09/18 02:57:06;;;;;;;13.20;11.93;;;17.30;88.50;;;;;;5115567;28;20746;-90
2023/09/18 02:59:32;;;;;;;13.38;12.23;;;17.30;88.50;;;;;;5116217;28;20176;-90
2023/09/18 03:01:57;;;;;;;13.48;11.70;;;17.20;88.40;;;;;;5114635;28;20221;-90
2023/09/18 03:04:23;;;;;;;12.55;11.55;;;17.30;88.40;;;;;;5116045;28;20182;-90
2023/09/18 03:06:49;;;;;;;11.20;10.30;;;17.20;88.40;;;;;;5115926;28;20535;-90
2023/09/18 03:09:16;;;;;;;11.57;10.57;;;17.10;88.40;;;;;;5115654;28;20166;-90
2023/09/18 03:11:41;;;;;;;11.48;10.48;;;17.10;88.50;;;;;;5115606;28;20170;-90
2023/09/18 03:14:07;;;;;;;12.23;11.07;;;17.10;88.50;;;;;;5115544;28;20560;-89
2023/09/18 03:16:33;;;;;;;11.82;10.82;;;17.00;88.60;;;;;;5115528;27;20169;-90
2023/09/18 03:18:58;;;;;;;13.52;12.45;;;17.00;88.60;;;;;;5114343;28;20710;-90
2023/09/18 03:21:24;;;;;;;12.98;11.88;;;17.00;88.70;;;;;;5114138;28;20208;-89
2023/09/18 03:23:50;;;;;;;13.65;12.45;;;17.10;88.80;;;;;;5114188;28;20699;-90
2023/09/18 03:26:15;;;;;;;13.50;12.20;;;17.20;88.80;;;;;;5114821;28;20170;-89
2023/09/18 03:28:41;;;;;;;13.60;12.30;;;17.20;88.60;;;;;;5115098;28;20198;-89
2023/09/18 03:31:06;;;;;;;12.90;11.90;;;17.20;88.70;;;;;;5114178;28;20645;-90
2023/09/18 03:33:32;;;;;;;17.70;12.57;;;17.20;88.60;;;;;;5114016;28;20186;-90
2023/09/18 03:35:58;;;;;;;12.52;11.40;;;17.20;88.40;;;;;;5113934;28;20184;-90
2023/09/18 03:38:24;;;;;;;13.60;12.40;;;17.20;88.40;;;;;;5113929;28;20170;-90
2023/09/18 03:40:50;;;;;;;13.88;12.60;;;17.20;88.40;;;;;;5113837;28;20226;-90
2023/09/18 03:43:16;;;;;;;14.57;13.15;;;17.10;88.40;;;;;;5114999;28;20216;-90
2023/09/18 03:45:41;;;;;;;13.95;12.50;;;17.00;88.50;;;;;;5113752;28;20170;-90
2023/09/18 03:48:07;;;;;;;14.55;12.75;;;16.90;88.70;;;;;;5114930;28;20177;-90
2023/09/18 03:50:32;;;;;;;13.02;12.07;;;16.90;88.80;;;;;;5115192;28;20166;-90
2023/09/18 03:52:58;;;;;;;13.98;12.77;;;16.90;89.00;;;;;;5113578;28;20633;-90
2023/09/18 03:55:24;;;;;;;15.65;13.25;;;16.90;89.00;;;;;;5113429;28;20205;-90
2023/09/18 03:57:49;;;;;;;13.02;11.70;;;16.90;89.10;;;;;;5114805;28;20158;-90
2023/09/18 04:00:16;;;;;;;13.40;12.30;;;16.80;89.20;;;;;;5113457;28;20170;-89
2023/09/18 04:02:41;;;;;;;13.88;11.32;;;16.80;89.30;;;;;;5113440;28;20198;-90
2023/09/18 04:05:07;;;;;;;13.02;11.88;;;17.00;89.40;;;;;;5113816;28;20242;-90
2023/09/18 04:07:33;;;;;;;13.38;12.07;;;17.00;89.30;;;;;;5113331;28;20265;-89
2023/09/18 04:09:58;;;;;;;13.00;11.90;;;17.00;89.20;;;;;;5113575;28;20204;-89
2023/09/18 04:12:24;;;;;;;13.70;12.32;;;17.10;89.10;;;;;;5113299;28;20218;-90
2023/09/18 04:14:50;;;;;;;12.45;11.38;;;17.10;89.00;;;;;;5114449;28;20268;-89
2023/09/18 04:17:16;;;;;;;12.88;11.60;;;17.20;88.90;;;;;;5113134;28;20170;-89
2023/09/18 04:19:43;;;;;;;12.55;11.30;;;17.20;88.70;;;;;;5113126;28;20712;-90
2023/09/18 04:22:08;;;;;;;13.00;11.85;;;17.20;88.70;;;;;;5114366;28;20193;-89
2023/09/18 04:24:34;;;;;;;14.45;12.90;;;17.20;88.50;;;;;;5114539;28;20198;-89
2023/09/18 04:26:59;;;;;;;13.27;12.02;;;17.30;88.40;;;;;;5112993;28;20215;-89
2023/09/18 04:29:25;;;;;;;12.10;11.00;;;17.30;88.40;;;;;;5114053;28;20219;-89
2023/09/18 04:31:51;;;;;;;13.52;12.32;;;17.30;88.30;;;;;;5112983;28;20227;-89
2023/09/18 04:34:16;;;;;;;15.15;11.10;;;17.30;88.20;;;;;;5112821;28;20543;-90
2023/09/18 04:36:43;;;;;;;15.35;11.73;;;17.30;88.10;;;;;;5112912;28;20714;-89
2023/09/18 04:39:09;;;;;;;13.10;12.00;;;17.30;88.00;;;;;;5113076;28;20174;-89
2023/09/18 04:41:35;;;;;;;12.70;11.65;;;17.30;88.00;;;;;;5112714;28;20189;-90
2023/09/18 04:44:00;;;;;;;16.10;12.05;;;17.30;87.90;;;;;;5112741;28;20186;-89
2023/09/18 04:46:26;;;;;;;13.38;12.15;;;17.30;88.00;;;;;;5114095;28;20537;-90
2023/09/18 04:48:52;;;;;;;13.77;12.38;;;17.30;88.00;;;;;;5112804;28;20281;-91
2023/09/18 04:51:17;;;;;;;12.80;11.70;;;17.20;88.00;;;;;;5113837;28;20702;-91
2023/09/18 04:53:43;;;;;;;13.13;11.93;;;17.20;88.10;;;;;;5114004;28;20190;-91
2023/09/18 04:56:10;;;;;;;13.40;12.10;;;17.20;88.20;;;;;;5112473;28;20190;-91
2023/09/18 04:58:37;;;;;;;12.63;11.52;;;17.20;88.20;;;;;;5113489;28;20182;-90
2023/09/18 05:01:05;;;;;;;13.23;11.63;;;17.10;88.40;;;;;;5112373;28;20208;-90
2023/09/18 05:03:34;;;;;;;13.30;12.10;;;17.10;88.40;;;;;;5112567;28;20258;-90
2023/09/18 05:06:00;;;;;;;12.48;11.27;;;17.10;88.50;;;;;;5112578;28;20179;-91
2023/09/18 05:08:25;;;;;;;12.65;11.55;;;17.00;88.60;;;;;;5113691;28;20173;-91
2023/09/18 05:10:51;;;;;;;12.55;11.50;;;17.00;88.70;;;;;;5112479;28;20188;-91
2023/09/18 05:13:16;;;;;;;13.60;12.40;;;17.00;88.80;;;;;;5112476;28;20170;-91
2023/09/18 05:15:42;;;;;;;13.02;11.70;;;17.00;88.90;;;;;;5112399;28;20234;-90
2023/09/18 05:18:08;;;;;;;13.13;11.95;;;17.00;89.00;;;;;;5112428;28;20177;-90
2023/09/18 05:20:34;;;;;;;13.00;11.80;;;17.00;89.00;;;;;;5112500;28;20182;-91
2023/09/18 05:23:01;;;;;;;13.63;12.35;;;16.90;89.10;;;;;;5112480;28;20178;-90
2023/09/18 05:25:29;;;;;;;13.98;12.43;;;17.00;89.10;;;;;;5112439;28;20545;-92
2023/09/18 05:27:56;;;;;;;12.50;11.30;;;17.00;89.10;;;;;;5112410;28;20170;-90
2023/09/18 05:30:33;;;;;;;16.30;12.35;;;17.10;89.00;;;;;;5112242;28;20170;-91
2023/09/18 05:33:07;;;;;;;13.05;11.75;;;17.20;88.90;;;;;;5113347;28;20218;-90
2023/09/18 05:35:39;;;;;;;14.57;11.73;;;17.20;88.80;;;;;;5112238;28;20253;-90
2023/09/18 05:38:05;;;;;;;13.23;11.82;;;17.20;88.70;;;;;;5112217;28;20167;-90
2023/09/18 05:40:31;;;;;;;22.90;12.05;;;17.20;88.60;;;;;;5112083;28;20170;-91
2023/09/18 05:42:57;;;;;;;13.50;12.15;;;17.20;88.60;;;;;;5112117;28;20541;-91
2023/09/18 05:45:23;;;;;;;13.55;12.45;;;17.30;88.60;;;;;;5112474;28;20197;-91
2023/09/18 05:47:49;;;;;;;13.23;12.02;;;17.30;88.60;;;;;;5113300;28;20166;-90
2023/09/18 05:50:16;;;;;;;13.48;12.27;;;17.30;88.60;;;;;;5113198;28;20178;-91
2023/09/18 05:52:46;;;;;;;13.32;12.13;;;17.30;88.60;;;;;;5117424;28;20191;-90
2023/09/18 05:55:13;;;;;;;13.10;11.70;;;17.30;88.50;;;;;;5115963;28;20205;-90
2023/09/18 05:57:39;;;;;;;12.90;11.60;;;17.30;88.50;;;;;;5116160;28;20652;-90
2023/09/18 06:00:05;;;;;;;13.57;12.25;;;17.30;88.40;;;;;;5117091;28;20174;-90
2023/09/18 06:02:31;;;;;;;13.32;12.00;;;17.30;88.50;;;;;;5115578;28;20208;-91
2023/09/18 06:04:59;;;;;;;13.60;12.55;;;17.40;88.60;;;;;;5117212;28;20281;-90
2023/09/18 06:07:26;;;;;;;14.27;12.93;;;17.40;88.60;;;;;;5115690;28;20173;-90
2023/09/18 06:09:52;;;;;;;13.77;12.48;;;17.50;88.60;;;;;;5115572;28;20638;-90
2023/09/18 06:12:17;;;;;;;14.00;12.68;;;17.50;88.60;;;;;;5115726;28;20226;-90
2023/09/18 06:14:43;;;;;;;13.93;12.52;;;17.60;88.60;;;;;;5115534;28;20703;-90
2023/09/18 06:17:09;;;;;;;13.88;12.52;;;17.70;88.50;;;;;;5115609;28;20178;-90
2023/09/18 06:19:35;;;;;;;13.82;12.60;;;17.70;88.30;;;;;;5116625;28;20170;-91
2023/09/18 06:22:01;;;;;;;13.60;12.40;;;17.80;88.20;;;;;;5116500;28;20262;-90
2023/09/18 06:24:27;;;;;;;15.07;13.25;;;17.90;88.00;;;;;;5115281;28;20224;-90
2023/09/18 06:26:53;;;;;;;13.82;12.35;;;18.00;87.60;;;;;;5115321;28;20170;-90
2023/09/18 06:29:19;;;;;;;13.38;11.82;;;18.20;87.40;;;;;;5116500;28;20166;-90
2023/09/18 06:31:44;;;;;;;13.63;12.23;;;18.30;87.10;;;;;;5115255;28;20174;-90
2023/09/18 06:34:10;;;;;;;13.02;11.90;;;18.30;87.00;;;;;;5115134;28;20198;-90
2023/09/18 06:36:35;;;;;;;12.95;11.85;;;18.40;86.80;;;;;;5116465;28;20170;-90
2023/09/18 06:39:02;;;;;;;14.07;12.68;;;18.50;86.20;;;;;;5115395;28;20764;-90
2023/09/18 06:41:27;;;;;;;13.77;11.77;;;18.60;85.60;;;;;;5115190;28;20197;-91
2023/09/18 06:43:53;;;;;;;12.98;11.77;;;18.70;85.50;;;;;;5116457;28;20543;-91
2023/09/18 06:46:19;;;;;;;12.55;11.48;;;18.80;85.20;;;;;;5116318;28;20205;-90
2023/09/18 06:48:49;;;;;;;13.35;12.05;;;18.80;85.00;;;;;;5114988;28;20171;-90
2023/09/18 06:51:15;;;;;;;13.63;12.27;;;18.80;84.90;;;;;;5114930;28;20723;-91
2023/09/18 06:53:40;;;;;;;15.50;12.15;;;18.90;84.70;;;;;;5114722;28;20194;-90
2023/09/18 06:56:06;;;;;;;13.27;11.60;;;19.00;84.50;;;;;;5114838;28;20543;-91
2023/09/18 06:58:31;;;;;;;13.15;11.82;;;19.00;84.40;;;;;;5115017;28;20196;-91
2023/09/18 07:01:00;;;;;;;12.23;11.23;;;19.10;84.20;;;;;;5114332;28;20279;-91
2023/09/18 07:03:25;;;;;;;13.20;11.68;;;19.20;83.90;;;;;;5116435;28;20193;-90
2023/09/18 07:05:51;;;;;;;16.65;11.85;;;19.20;83.60;;;;;;5114641;28;20170;-89
2023/09/18 07:08:19;;;;;;;12.63;11.48;;;19.30;83.30;;;;;;5114674;28;20170;-90
2023/09/18 07:10:45;;;;;;;12.68;11.57;;;19.40;83.10;;;;;;5114735;28;20556;-90
2023/09/18 07:13:11;;;;;;;13.85;12.65;;;19.40;83.30;;;;;;5114489;28;20176;-90
2023/09/18 07:15:37;;;;;;;13.35;12.02;;;19.50;83.30;;;;;;5116370;28;20172;-90
2023/09/18 07:18:03;;;;;;;12.88;11.88;;;19.50;82.70;;;;;;5114449;28;20166;-91
2023/09/18 07:20:29;;;;;;;13.93;12.05;;;19.60;82.80;;;;;;5114306;28;20200;-90
2023/09/18 07:22:55;;;;;;;13.60;12.25;;;19.60;82.60;;;;;;5114241;28;20205;-91
2023/09/18 07:25:21;;;;;;;13.43;12.23;;;19.60;82.60;;;;;;5115391;28;20185;-91
2023/09/18 07:27:47;;;;;;;12.90;11.88;;;19.70;82.70;;;;;;5114215;28;20256;-90
2023/09/18 07:30:17;;;;;;;12.75;11.55;;;19.70;82.70;;;;;;5115322;28;20170;-91
2023/09/18 07:32:43;;;;;;;12.95;11.80;;;19.70;82.60;;;;;;5114173;28;20702;-90
2023/09/18 07:35:09;;;;;;;19.38;12.10;;;19.90;82.20;;;;;;5113975;28;20202;-90
2023/09/18 07:37:35;;;;;;;12.90;11.60;;;19.90;82.20;;;;;;5115077;28;20174;-89
2023/09/18 07:40:02;;;;;;;13.20;11.65;;;20.00;82.00;;;;;;5115055;28;20166;-90
2023/09/18 07:42:27;;;;;;;16.00;11.90;;;20.10;81.50;;;;;;5113683;28;20201;-89
2023/09/18 07:44:53;;;;;;;12.82;11.93;;;20.10;81.60;;;;;;5113748;28;20212;-90
2023/09/18 07:47:19;;;;;;;13.15;11.80;;;20.10;81.20;;;;;;5113956;28;20166;-89
2023/09/18 07:49:45;;;;;;;13.27;12.18;;;20.20;81.80;;;;;;5113754;28;20170;-90
2023/09/18 07:52:11;;;;;;;12.70;11.68;;;20.20;81.40;;;;;;5115198;28;20255;-90
2023/09/18 07:54:36;;;;;;;13.45;12.23;;;20.20;81.50;;;;;;5113762;28;20193;-89
2023/09/18 07:57:02;;;;;;;20.17;12.85;;;20.20;81.40;;;;;;5113500;28;20200;-90
2023/09/18 07:59:27;;;;;;;24.77;14.20;;;20.20;81.50;;;;;;5113539;28;20178;-90
2023/09/18 08:01:54;;;;;;;14.13;11.52;;;20.20;81.40;;;;;;5114454;28;20201;-90
2023/09/18 08:04:20;;;;;;;13.32;12.23;;;20.20;81.50;;;;;;5113261;28;20190;-90
2023/09/18 08:06:45;;;;;;;11.88;10.75;;;20.10;81.60;;;;;;5113738;28;20177;-90
2023/09/18 08:09:13;;;;;;;12.88;11.75;;;20.20;81.90;;;;;;5113423;28;20198;-90
2023/09/18 08:11:41;;;;;;;12.98;11.77;;;20.20;81.70;;;;;;5113866;28;20173;-91
2023/09/18 08:14:07;;;;;;;12.45;11.48;;;20.20;81.50;;;;;;5113959;28;20192;-91
2023/09/18 08:16:33;;;;;;;13.50;12.35;;;20.20;81.40;;;;;;5113329;28;20549;-90
2023/09/18 08:19:00;;;;;;;13.52;12.20;;;20.20;81.00;;;;;;5113219;28;20174;-90
2023/09/18 08:21:28;;;;;;;14.45;13.07;;;20.20;81.20;;;;;;5114601;28;20267;-91
2023/09/18 08:23:54;;;;;;;14.57;12.48;;;20.20;81.20;;;;;;5113545;28;20212;-88
2023/09/18 08:26:20;;;;;;;15.98;12.73;;;20.20;81.20;;;;;;5114531;28;20174;-90
2023/09/18 08:28:46;;;;;;;13.05;12.05;;;20.20;80.90;;;;;;5115264;28;20169;-91
2023/09/18 08:31:12;;;;;;;13.23;12.13;;;20.20;81.20;;;;;;5115706;28;20581;-90
2023/09/18 08:33:37;;;;;;;12.80;11.75;;;20.10;81.30;;;;;;5113348;28;20197;-91
2023/09/18 08:36:03;;;;;;;13.60;12.48;;;20.10;81.60;;;;;;5114535;28;20194;-91
2023/09/18 08:38:28;;;;;;;12.48;11.48;;;20.10;82.20;;;;;;5114269;28;20697;-91
2023/09/18 08:40:55;;;;;;;13.85;11.57;;;20.00;83.00;;;;;;5114534;28;20174;-91
2023/09/18 08:43:22;;;;;;;12.15;11.25;;;20.00;83.40;;;;;;5112853;28;20198;-91
2023/09/18 08:45:57;;;;;;;12.88;11.90;;;19.90;84.00;;;;;;5113809;28;20171;-90
2023/09/18 08:48:24;;;;;;;11.60;10.63;;;19.80;84.40;;;;;;5114332;28;20170;-91
2023/09/18 08:50:51;;;;;;;12.10;10.82;;;19.70;84.90;;;;;;5114286;28;20178;-89
2023/09/18 08:53:16;;;;;;;10.73;9.85;;;19.70;85.20;;;;;;5113159;28;20176;-90
2023/09/18 08:55:42;;;;;;;13.35;12.20;;;19.70;85.00;;;;;;5114383;28;20181;-89
2023/09/18 08:58:08;;;;;;;19.30;17.90;;;19.60;85.30;;;;;;5112882;28;20620;-91
2023/09/18 09:00:36;;;;;;;18.40;16.77;;;19.60;85.50;;;;;;5112956;28;20174;-90
2023/09/18 09:03:04;;;;;;;11.77;10.85;;;19.60;85.40;;;;;;5112635;28;20205;-91
2023/09/18 09:05:30;;;;;;;11.60;10.05;;;19.50;86.10;;;;;;5112709;28;20174;-91
2023/09/18 09:07:56;;;;;;;15.60;14.30;;;19.50;87.00;;;;;;5113096;28;20170;-90
2023/09/18 09:10:22;;;;;;;15.82;14.52;;;19.40;87.80;;;;;;5112561;28;20271;-90
2023/09/18 09:12:57;;;;;;;14.30;13.23;;;19.40;88.40;;;;;;5112542;28;20633;-90
2023/09/18 09:15:24;;;;;;;11.70;10.75;;;19.50;88.80;;;;;;5112825;28;20200;-90
2023/09/18 09:17:51;;;;;;;11.43;10.23;;;19.60;89.10;;;;;;5113279;28;20181;-90
2023/09/18 09:20:18;;;;;;;14.73;13.50;;;19.70;89.30;;;;;;5112738;28;20178;-91
2023/09/18 09:22:44;;;;;;;14.07;13.07;;;19.80;89.40;;;;;;5112934;28;20221;-91
2023/09/18 09:25:33;;;;;;;10.40;9.20;;;19.80;89.30;;;;;;5117136;28;20186;-91
2023/09/18 09:28:07;;;;;;;10.35;9.07;;;19.90;89.40;;;;;;5117971;28;20167;-91
2023/09/18 09:30:34;;;;;;;10.88;9.13;;;20.00;89.30;;;;;;5118826;27;20210;-90
2023/09/18 09:33:03;;;;;;;13.50;10.80;;;20.10;89.30;;;;;;5116979;28;20185;-90
2023/09/18 09:35:31;;;;;;;10.75;9.40;;;20.20;89.30;;;;;;5117783;28;20255;-89
2023/09/18 09:38:00;;;;;;;13.30;9.60;;;20.30;89.20;;;;;;5116801;28;20188;-90
2023/09/18 09:40:27;;;;;;;10.52;9.45;;;20.40;89.20;;;;;;5116421;28;20180;-89
2023/09/18 09:43:00;;;;;;;11.85;9.27;;;20.50;88.90;;;;;;5117794;28;20202;-89
2023/09/18 09:45:29;;;;;;;11.00;9.90;;;20.70;88.00;;;;;;5117273;28;20276;-90
2023/09/18 09:47:59;;;;;;;11.63;10.23;;;20.80;87.60;;;;;;5117489;28;20158;-88
2023/09/18 09:50:25;;;;;;;11.32;9.38;;;20.80;86.80;;;;;;5117146;28;20532;-89
2023/09/18 09:52:54;;;;;;;11.60;9.50;;;20.90;86.50;;;;;;5117487;28;20173;-88
2023/09/18 09:55:33;;;;;;;10.45;9.43;;;20.90;85.90;;;;;;5116089;28;20664;-88
2023/09/18 09:58:04;;;;;;;10.73;9.82;;;20.90;85.50;;;;;;5115957;28;20196;-89
2023/09/18 10:00:45;;;;;;;11.68;10.00;;;21.00;85.80;;;;;;5117442;28;20180;-89
2023/09/18 10:03:13;;;;;;;12.60;10.00;;;21.00;85.50;;;;;;5116504;28;20177;-89
2023/09/18 10:05:44;;;;;;;10.80;9.85;;;21.00;85.40;;;;;;5116062;28;20174;-88
2023/09/18 10:08:17;;;;;;;10.82;9.73;;;21.00;85.30;;;;;;5117103;28;20241;-90
2023/09/18 10:10:47;;;;;;;10.95;10.00;;;21.10;85.40;;;;;;5115925;28;20174;-89
2023/09/18 10:13:49;;;;;;;10.90;9.90;;;21.10;84.60;;;;;;5117133;28;20178;-89
2023/09/18 10:16:20;;;;;;;10.35;9.45;;;21.20;84.90;;;;;;5108077;28;20177;-90
2023/09/18 10:19:04;;;;;;;10.40;9.45;;;21.20;84.70;;;;;;5117143;28;20155;-90
2023/09/18 10:22:00;;;;;;;14.15;9.77;;;21.20;84.10;;;;;;5115568;28;20281;-91
2023/09/18 10:24:30;;;;;;;11.05;9.98;;;21.20;83.70;;;;;;5115368;28;20259;-89
2023/09/18 10:26:56;;;;;;;11.50;10.38;;;21.30;83.40;;;;;;5115634;28;20215;-90
2023/09/18 10:29:26;;;;;;;9.90;9.20;;;21.30;83.50;;;;;;5116510;28;20171;-89
2023/09/18 10:31:55;;;;;;;11.93;10.27;;;21.30;83.70;;;;;;5115193;28;20195;-89
2023/09/18 10:34:23;;;;;;;10.18;9.38;;;21.30;83.90;;;;;;5115568;28;20193;-90
2023/09/18 10:36:50;;;;;;;13.68;10.75;;;21.30;83.40;;;;;;5114580;28;20257;-89
2023/09/18 10:39:19;;;;;;;12.43;10.65;;;21.50;83.60;;;;;;5115062;28;20185;-90
2023/09/18 10:41:47;;;;;;;11.27;10.13;;;21.60;83.50;;;;;;5114968;28;20339;-89
2023/09/18 10:44:14;;;;;;;12.18;10.80;;;21.80;82.90;;;;;;5114907;28;20812;-89
2023/09/18 10:46:40;;;;;;;13.77;10.48;;;22.00;81.90;;;;;;5115334;28;20265;-89
2023/09/18 10:49:05;;;;;;;11.55;10.52;;;22.00;81.30;;;;;;5115083;28;20258;-89
2023/09/18 10:51:33;;;;;;;11.23;9.93;;;21.90;82.00;;;;;;5114843;28;20177;-90
2023/09/18 10:54:00;;;;;;;14.50;10.35;;;22.00;82.60;;;;;;5114839;28;20774;-89
2023/09/18 10:56:26;;;;;;;11.63;10.52;;;22.10;82.10;;;;;;5115962;28;20295;-89
2023/09/18 10:59:03;;;;;;;11.55;10.35;;;22.30;82.30;;;;;;5114949;28;20215;-89
2023/09/18 11:01:30;;;;;;;12.15;11.13;;;22.50;81.40;;;;;;5115934;28;20628;-89
2023/09/18 11:04:01;;;;;;;11.63;10.13;;;22.30;80.10;;;;;;5114758;28;20569;-89
2023/09/18 11:06:27;;;;;;;11.95;10.85;;;22.30;80.80;;;;;;5115980;28;20170;-89
2023/09/18 11:09:04;;;;;;;12.02;10.70;;;22.40;80.40;;;;;;5114782;28;20177;-89
2023/09/18 11:11:32;;;;;;;13.13;10.80;;;22.40;80.40;;;;;;5114605;28;20176;-89
2023/09/18 11:13:59;;;;;;;18.10;10.52;;;22.40;80.40;;;;;;5114583;28;20221;-90
2023/09/18 11:16:28;;;;;;;11.40;10.30;;;22.60;80.90;;;;;;5114730;28;20178;-90
2023/09/18 11:19:03;;;;;;;13.40;9.80;;;22.50;80.60;;;;;;5114756;28;20206;-91
2023/09/18 11:21:31;;;;;;;15.77;10.63;;;22.60;81.00;;;;;;5114739;28;20242;-90
2023/09/18 11:24:10;;;;;;;12.15;9.60;;;22.50;80.70;;;;;;5114227;28;20284;-89
2023/09/18 11:26:40;;;;;;;10.88;9.73;;;22.50;81.10;;;;;;5115384;28;20194;-89
2023/09/18 11:29:18;;;;;;;11.20;10.05;;;22.50;81.40;;;;;;5114025;28;20170;-89
2023/09/18 11:31:53;;;;;;;10.52;9.55;;;22.40;81.50;;;;;;5114192;28;20176;-90
2023/09/18 11:34:36;;;;;;;12.88;9.52;;;22.40;81.20;;;;;;5114087;28;20221;-90
2023/09/18 11:37:18;;;;;;;11.18;9.48;;;22.30;81.70;;;;;;5114037;28;20178;-90
2023/09/18 11:39:45;;;;;;;11.18;8.93;;;22.30;81.10;;;;;;5113967;28;20590;-90
2023/09/18 11:42:16;;;;;;;10.02;9.13;;;22.40;82.10;;;;;;5115067;28;20189;-90
2023/09/18 11:44:43;;;;;;;11.40;9.45;;;22.30;81.70;;;;;;5114009;28;20677;-89
2023/09/18 11:47:19;;;;;;;19.02;9.60;;;22.20;82.00;;;;;;5113618;28;20181;-89
2023/09/18 11:49:54;;;;;;;12.43;9.52;;;22.20;82.30;;;;;;5113594;28;20197;-89
2023/09/18 11:52:24;;;;;;;17.23;9.65;;;22.20;82.30;;;;;;5114021;28;20174;-89
2023/09/18 11:54:51;;;;;;;15.85;9.95;;;22.20;81.80;;;;;;5114193;28;20194;-89
2023/09/18 11:57:19;;;;;;;12.00;9.15;;;22.20;82.20;;;;;;5115968;28;20157;-89
2023/09/18 11:59:50;;;;;;;15.80;9.48;;;22.10;82.20;;;;;;5113522;28;20537;-89
2023/09/18 12:02:36;;;;;;;13.60;9.40;;;22.10;81.80;;;;;;5115025;28;20549;-89
2023/09/18 12:05:27;;;;;;;14.15;9.32;;;22.10;82.00;;;;;;5114686;28;20587;-89
2023/09/18 12:07:54;;;;;;;16.67;9.32;;;22.20;82.10;;;;;;5110632;28;20281;-89
2023/09/18 12:10:20;;;;;;;12.52;9.07;;;22.20;81.80;;;;;;5114613;28;20158;-90
2023/09/18 12:12:47;;;;;;;11.77;9.02;;;22.30;81.50;;;;;;5113496;28;20553;-89
2023/09/18 12:15:15;;;;;;;13.75;9.75;;;22.30;80.90;;;;;;5114313;28;20212;-90
2023/09/18 12:17:40;;;;;;;17.52;10.52;;;22.40;81.10;;;;;;5113265;27;20314;-89
2023/09/18 12:20:06;;;;;;;12.50;10.05;;;22.50;80.50;;;;;;5113247;28;20210;-89
2023/09/18 12:22:35;;;;;;;18.58;10.07;;;22.70;80.70;;;;;;5112889;28;20688;-89
2023/09/18 12:25:17;;;;;;;14.57;9.85;;;22.80;80.20;;;;;;5114206;28;20264;-89
2023/09/18 12:27:42;;;;;;;15.57;9.57;;;22.80;79.90;;;;;;5114670;28;20622;-89
2023/09/18 12:30:09;;;;;;;10.77;9.68;;;23.10;79.60;;;;;;5114189;28;20174;-89